Time;durP1;ratioP1;P1;durP2;ratioP2;P2;SDS_P1;SDS_P2;PMS_P1;PMS_P2;Temp;Humidity;BMP_temperature;BMP_pressure;BME280_temperature;BME280_humidity;BME280_pressure;Samples;Min_cycle;Max_cycle;Signal;HPM_P1;HPM_P2
2023/11/03 00:01:48;;;;;;;49.30;30.30;;;;;;;3.88;100.00;100744.45;105849;1254;72682;-75
2023/11/03 00:04:16;;;;;;;47.30;28.50;;;;;;;3.88;100.00;100737.19;105963;1256;60945;-74
2023/11/03 00:06:43;;;;;;;49.60;33.20;;;;;;;3.87;100.00;100738.92;105868;1251;60470;-74
2023/11/03 00:09:16;;;;;;;43.80;30.20;;;;;;;3.87;100.00;100737.21;105855;1251;73869;-75
2023/11/03 00:11:45;;;;;;;44.00;29.90;;;;;;;3.87;100.00;100743.27;105953;1254;62648;-76
2023/11/03 00:14:12;;;;;;;46.30;31.80;;;;;;;3.85;100.00;100739.17;105907;1256;72738;-77
2023/11/03 00:16:39;;;;;;;49.50;31.50;;;;;;;3.84;100.00;100740.23;105865;1256;60531;-73
2023/11/03 00:19:07;;;;;;;47.90;32.80;;;;;;;3.85;100.00;100738.85;105831;1256;60479;-74
2023/11/03 00:21:34;;;;;;;49.30;31.90;;;;;;;3.85;100.00;100735.73;105857;1254;72151;-74
2023/11/03 00:24:01;;;;;;;55.60;31.00;;;;;;;3.85;100.00;100733.11;105987;1256;63839;-74
2023/11/03 00:26:28;;;;;;;46.80;33.60;;;;;;;3.86;100.00;100725.99;105895;1251;72686;-76
2023/11/03 00:28:56;;;;;;;56.20;34.50;;;;;;;3.84;100.00;100722.06;105955;1255;61211;-76
2023/11/03 00:31:23;;;;;;;60.80;36.20;;;;;;;3.82;100.00;100724.03;105952;1256;60552;-73
2023/11/03 00:33:50;;;;;;;55.60;36.70;;;;;;;3.82;100.00;100722.98;105835;1252;72478;-77
2023/11/03 00:36:17;;;;;;;47.90;33.10;;;;;;;3.84;100.00;100723.83;106139;1251;63622;-73
2023/11/03 00:38:44;;;;;;;44.50;29.70;;;;;;;3.84;100.00;100720.54;106017;1251;72736;-74
2023/11/03 00:41:14;;;;;;;43.50;27.30;;;;;;;3.83;100.00;100721.95;105861;1263;60858;-76
2023/11/03 00:45:21;;;;;;;48.40;30.50;;;;;;;3.83;100.00;100719.53;102690;1296;600507;-72
2023/11/03 00:47:48;;;;;;;50.20;29.60;;;;;;;3.79;100.00;100721.70;104858;1265;59961;-75
2023/11/03 00:50:16;;;;;;;46.00;26.20;;;;;;;3.78;100.00;100723.30;104822;1270;59241;-74
2023/11/03 00:52:43;;;;;;;35.60;25.10;;;;;;;3.75;100.00;100721.48;104824;1268;72087;-73
2023/11/03 00:55:11;;;;;;;35.90;23.80;;;;;;;3.72;100.00;100720.20;104808;1269;63590;-76
2023/11/03 00:57:39;;;;;;;39.20;24.10;;;;;;;3.69;100.00;100717.33;104735;1271;71853;-74
2023/11/03 01:00:12;;;;;;;32.00;21.50;;;;;;;3.68;100.00;100716.49;104734;1268;218922;-76
2023/11/03 01:02:43;;;;;;;37.80;23.90;;;;;;;3.67;100.00;100711.02;105223;1264;59283;-74
2023/11/03 01:05:14;;;;;;;42.50;25.80;;;;;;;3.66;100.00;100710.67;105070;1263;70775;-75
2023/11/03 01:07:42;;;;;;;50.80;30.50;;;;;;;3.66;100.00;100709.30;105032;1263;62480;-75
2023/11/03 01:10:15;;;;;;;58.70;35.90;;;;;;;3.66;100.00;100710.69;105032;1263;72800;-73
2023/11/03 01:12:43;;;;;;;54.60;32.70;;;;;;;3.67;100.00;100712.20;105060;1267;59867;-75
2023/11/03 01:15:13;;;;;;;59.10;36.50;;;;;;;3.69;100.00;100711.47;104904;1263;59727;-74
2023/11/03 01:17:41;;;;;;;49.90;30.30;;;;;;;3.70;100.00;100713.67;105118;1260;73029;-74
2023/11/03 01:20:19;;;;;;;54.90;35.90;;;;;;;3.70;100.00;100710.05;105169;1265;63585;-74
2023/11/03 01:22:50;;;;;;;65.00;40.10;;;;;;;3.69;100.00;100709.73;105152;1260;71266;-74
2023/11/03 01:25:17;;;;;;;53.30;34.60;;;;;;;3.69;100.00;100709.20;104977;1267;61709;-73
2023/11/03 01:27:46;;;;;;;68.90;36.80;;;;;;;3.68;100.00;100706.48;105127;1262;59732;-76
2023/11/03 01:30:14;;;;;;;66.50;39.40;;;;;;;3.65;100.00;100706.41;105066;1259;72280;-75
2023/11/03 01:45:02;;;;;;;51.00;31.50;;;;;;;3.70;100.00;100717.30;102993;1286;603739;-74
2023/11/03 01:47:29;;;;;;;49.70;31.10;;;;;;;3.69;100.00;100721.84;105128;1268;61189;-73
2023/11/03 01:49:56;;;;;;;44.40;28.90;;;;;;;3.67;100.00;100723.45;105388;1262;59362;-75
2023/11/03 01:52:27;;;;;;;44.40;30.20;;;;;;;3.65;100.00;100724.02;105545;1261;72100;-75
2023/11/03 01:54:54;;;;;;;54.40;31.90;;;;;;;3.64;100.00;100723.90;105356;1264;63831;-77
2023/11/03 01:57:22;;;;;;;48.50;32.20;;;;;;;3.65;100.00;100722.81;105396;1261;218096;-74
2023/11/03 01:59:49;;;;;;;53.10;32.10;;;;;;;3.67;100.00;100721.23;105486;1260;61081;-74
2023/11/03 02:02:16;;;;;;;47.40;30.80;;;;;;;3.67;100.00;100717.91;105462;1261;59417;-73
2023/11/03 02:04:43;;;;;;;50.90;31.20;;;;;;;3.68;100.00;100720.98;105493;1257;72178;-74
2023/11/03 02:07:10;;;;;;;42.90;29.00;;;;;;;3.69;100.00;100728.92;105485;1257;62475;-75
2023/11/03 02:09:37;;;;;;;43.90;27.30;;;;;;;3.69;100.00;100727.36;105520;1258;72842;-73
2023/11/03 02:12:05;;;;;;;40.00;27.70;;;;;;;3.68;100.00;100734.12;105528;1259;59898;-75
2023/11/03 02:14:32;;;;;;;44.80;27.90;;;;;;;3.69;100.00;100734.80;105597;1260;59657;-74
2023/11/03 02:17:00;;;;;;;44.20;28.50;;;;;;;3.69;100.00;100732.73;105631;1257;73117;-77
2023/11/03 02:19:28;;;;;;;43.20;28.10;;;;;;;3.71;100.00;100732.83;105415;1260;63778;-73
2023/11/03 02:21:54;;;;;;;41.80;29.90;;;;;;;3.74;100.00;100731.20;105586;1268;72413;-76
2023/11/03 02:24:22;;;;;;;43.30;28.10;;;;;;;3.77;100.00;100731.80;105583;1259;59713;-75
2023/11/03 02:26:49;;;;;;;45.50;28.90;;;;;;;3.79;100.00;100731.05;105533;1254;59640;-74
2023/11/03 02:29:17;;;;;;;52.00;30.90;;;;;;;3.82;100.00;100727.33;105576;1258;70603;-74
2023/11/03 02:31:46;;;;;;;52.90;31.30;;;;;;;3.84;100.00;100728.48;105611;1258;63617;-74
2023/11/03 02:34:13;;;;;;;49.30;32.60;;;;;;;3.85;100.00;100724.63;105574;1254;72680;-74
2023/11/03 02:36:40;;;;;;;50.70;32.60;;;;;;;3.89;100.00;100727.30;105481;1257;59694;-74
2023/11/03 02:39:06;;;;;;;45.30;30.80;;;;;;;3.91;100.00;100718.06;105640;1255;60108;-74
2023/11/03 02:41:34;;;;;;;47.40;31.90;;;;;;;3.90;100.00;100722.40;105671;1257;73060;-75
2023/11/03 02:44:01;;;;;;;48.30;30.20;;;;;;;3.90;100.00;100722.94;105685;1257;63799;-75
2023/11/03 02:46:29;;;;;;;45.10;32.40;;;;;;;3.92;100.00;100726.86;105630;1254;72685;-74
2023/11/03 02:48:56;;;;;;;45.70;31.00;;;;;;;3.95;100.00;100730.89;105661;1254;59757;-74
2023/11/03 02:51:23;;;;;;;46.90;29.50;;;;;;;4.00;100.00;100732.48;105618;1259;59668;-75
2023/11/03 02:53:51;;;;;;;45.60;29.40;;;;;;;4.03;100.00;100731.17;105680;1257;72916;-74
2023/11/03 02:56:24;;;;;;;38.10;28.30;;;;;;;4.06;100.00;100726.94;105732;1258;63916;-73
2023/11/03 02:58:54;;;;;;;43.80;30.30;;;;;;;4.09;100.00;100725.98;105676;1258;72590;-74
2023/11/03 03:01:28;;;;;;;40.60;28.50;;;;;;;4.12;100.00;100725.71;105648;1258;59717;-75
2023/11/03 03:03:55;;;;;;;46.80;28.40;;;;;;;4.15;100.00;100727.35;105628;1257;59648;-75
2023/11/03 03:06:22;;;;;;;36.00;26.80;;;;;;;4.17;100.00;100724.02;105665;1258;72736;-76
2023/11/03 03:08:49;;;;;;;45.50;31.60;;;;;;;4.17;100.00;100727.63;105658;1259;64031;-75
2023/11/03 03:11:17;;;;;;;47.00;30.50;;;;;;;4.18;100.00;100726.05;105692;1254;72512;-75
2023/11/03 03:13:44;;;;;;;42.20;28.70;;;;;;;4.19;100.00;100722.23;105758;1257;61168;-74
2023/11/03 03:16:12;;;;;;;43.70;30.20;;;;;;;4.18;100.00;100717.90;105641;1254;60422;-74
2023/11/03 03:18:38;;;;;;;46.20;30.80;;;;;;;4.19;100.00;100717.02;105647;1254;71590;-77
2023/11/03 03:21:05;;;;;;;46.10;30.90;;;;;;;4.22;100.00;100714.85;105602;1254;63843;-76
2023/11/03 03:23:32;;;;;;;47.40;30.30;;;;;;;4.24;100.00;100719.27;105572;1254;71523;-73
2023/11/03 03:25:59;;;;;;;43.60;30.10;;;;;;;4.25;100.00;100716.65;105680;1253;60369;-75
2023/11/03 03:28:27;;;;;;;40.40;29.40;;;;;;;4.26;100.00;100709.52;105582;1254;60310;-75
2023/11/03 03:30:54;;;;;;;47.40;32.40;;;;;;;4.28;100.00;100706.69;105657;1257;72735;-75
2023/11/03 03:33:21;;;;;;;43.50;29.90;;;;;;;4.29;100.00;100701.64;105598;1260;63824;-75
2023/11/03 03:35:49;;;;;;;43.30;29.00;;;;;;;4.29;100.00;100699.04;105718;1254;71338;-73
2023/11/03 03:38:16;;;;;;;44.60;29.10;;;;;;;4.28;100.00;100699.09;105626;1258;59901;-74
2023/11/03 03:40:42;;;;;;;43.40;29.30;;;;;;;4.28;100.00;100699.42;105736;1255;59544;-75
2023/11/03 03:43:10;;;;;;;41.30;29.10;;;;;;;4.30;100.00;100704.55;105734;1254;73114;-73
2023/11/03 03:45:37;;;;;;;47.90;32.00;;;;;;;4.33;100.00;100703.23;105797;1255;63609;-74
2023/11/03 03:48:05;;;;;;;44.10;31.20;;;;;;;4.35;100.00;100701.77;105840;1251;72630;-74
2023/11/03 03:50:32;;;;;;;47.30;31.10;;;;;;;4.36;100.00;100694.80;105833;1256;61186;-76
2023/11/03 03:52:58;;;;;;;39.10;29.00;;;;;;;4.38;100.00;100695.80;105743;1257;59608;-74
2023/11/03 03:55:26;;;;;;;47.50;31.40;;;;;;;4.39;100.00;100695.42;105751;1254;73126;-75
2023/11/03 03:57:53;;;;;;;44.40;30.50;;;;;;;4.40;100.00;100695.92;105761;1256;62332;-75
2023/11/03 04:00:21;;;;;;;47.30;31.20;;;;;;;4.44;100.00;100692.30;105785;1251;71399;-74
2023/11/03 04:02:50;;;;;;;54.10;33.70;;;;;;;4.52;100.00;100690.65;105763;1251;60834;-75
2023/11/03 04:05:17;;;;;;;50.70;34.10;;;;;;;4.62;100.00;100689.10;105852;1251;60136;-74
2023/11/03 04:07:43;;;;;;;53.60;36.70;;;;;;;4.72;100.00;100685.98;105760;1256;73155;-75
2023/11/03 04:10:10;;;;;;;57.90;37.00;;;;;;;4.82;100.00;100686.69;105803;1251;62560;-77
2023/11/03 04:12:37;;;;;;;48.30;35.00;;;;;;;4.90;100.00;100690.40;105706;1257;72746;-76
2023/11/03 04:15:05;;;;;;;51.30;35.10;;;;;;;4.97;100.00;100694.63;105847;1256;59753;-75
2023/11/03 04:17:34;;;;;;;50.50;34.00;;;;;;;5.05;100.00;100693.84;105820;1251;59999;-76
2023/11/03 04:20:04;;;;;;;53.30;33.60;;;;;;;5.11;100.00;100696.90;105746;1253;73275;-75
2023/11/03 04:22:32;;;;;;;50.00;32.80;;;;;;;5.17;100.00;100699.11;106285;1256;63911;-75
2023/11/03 04:24:59;;;;;;;49.70;33.90;;;;;;;5.23;100.00;100701.17;106511;1252;71225;-73
2023/11/03 04:27:26;;;;;;;43.00;31.90;;;;;;;5.28;100.00;100702.36;107595;1251;61200;-74
2023/11/03 04:29:53;;;;;;;44.90;28.90;;;;;;;5.33;100.00;100702.50;106920;1251;60295;-74
2023/11/03 04:32:20;;;;;;;44.10;29.60;;;;;;;5.39;100.00;100706.61;105883;1251;71944;-75
2023/11/03 04:34:46;;;;;;;44.70;30.70;;;;;;;5.45;100.00;100706.60;105896;1251;59641;-74
2023/11/03 04:37:13;;;;;;;46.30;31.50;;;;;;;5.49;100.00;100704.70;105831;1255;72420;-74
2023/11/03 04:39:43;;;;;;;51.20;31.00;;;;;;;5.54;100.00;100709.73;105763;1255;61028;-74
2023/11/03 04:42:10;;;;;;;46.50;31.30;;;;;;;5.59;100.00;100717.15;105815;1251;60164;-76
2023/11/03 04:44:38;;;;;;;50.00;32.80;;;;;;;5.65;100.00;100722.66;105907;1251;72764;-75
2023/11/03 04:47:05;;;;;;;46.50;30.50;;;;;;;5.70;100.00;100722.13;105801;1256;62264;-75
2023/11/03 04:49:32;;;;;;;40.10;27.90;;;;;;;5.72;100.00;100724.48;105768;1251;72543;-75
2023/11/03 04:52:01;;;;;;;37.10;27.50;;;;;;;5.74;100.00;100724.23;105753;1256;62038;-76
2023/11/03 04:54:28;;;;;;;44.20;27.90;;;;;;;5.73;100.00;100723.73;105799;1251;60016;-74
2023/11/03 04:56:55;;;;;;;49.80;31.80;;;;;;;5.70;100.00;100725.23;105938;1251;71696;-75
2023/11/03 04:59:22;;;;;;;39.80;29.80;;;;;;;5.68;100.00;100727.23;105785;1256;62796;-75
2023/11/03 05:01:50;;;;;;;46.10;31.80;;;;;;;5.67;100.00;100733.87;105816;1251;70569;-76
2023/11/03 05:04:17;;;;;;;49.60;33.20;;;;;;;5.66;100.00;100733.57;105748;1257;60654;-73
2023/11/03 05:06:44;;;;;;;45.40;31.60;;;;;;;5.66;100.00;100731.66;105833;1256;60322;-74
2023/11/03 05:09:12;;;;;;;44.30;31.30;;;;;;;5.65;100.00;100734.45;105731;1251;73163;-76
2023/11/03 05:11:39;;;;;;;45.90;33.30;;;;;;;5.63;100.00;100731.57;105790;1256;63049;-74
2023/11/03 05:14:07;;;;;;;47.90;33.40;;;;;;;5.60;100.00;100731.33;105770;1256;72641;-75
2023/11/03 05:16:34;;;;;;;54.80;36.00;;;;;;;5.57;100.00;100733.89;105741;1257;59709;-75
2023/11/03 05:19:02;;;;;;;54.70;37.80;;;;;;;5.57;100.00;100731.96;105877;1251;60218;-75
2023/11/03 05:21:32;;;;;;;56.10;39.00;;;;;;;5.58;100.00;100728.45;105777;1251;72915;-75
2023/11/03 05:24:00;;;;;;;55.60;37.40;;;;;;;5.61;100.00;100724.55;105852;1251;63861;-75
2023/11/03 05:26:27;;;;;;;54.10;36.60;;;;;;;5.63;100.00;100725.86;105733;1254;72481;-74
2023/11/03 05:28:56;;;;;;;53.40;36.80;;;;;;;5.67;100.00;100734.91;105858;1256;60096;-75
2023/11/03 05:31:23;;;;;;;51.60;37.10;;;;;;;5.72;100.00;100739.55;105925;1251;59658;-75
2023/11/03 05:33:51;;;;;;;57.10;38.20;;;;;;;5.79;100.00;100751.46;105943;1251;73047;-74
2023/11/03 05:36:18;;;;;;;49.80;35.40;;;;;;;5.87;100.00;100748.20;106022;1256;64816;-75
2023/11/03 05:38:45;;;;;;;49.70;35.10;;;;;;;5.91;100.00;100744.56;105879;1256;72838;-75
2023/11/03 05:41:15;;;;;;;44.80;31.90;;;;;;;5.97;100.00;100749.05;106062;1256;62704;-77
2023/11/03 05:43:42;;;;;;;48.60;34.50;;;;;;;6.10;100.00;100742.49;105919;1251;60039;-76
2023/11/03 05:46:09;;;;;;;51.90;37.10;;;;;;;6.33;100.00;100740.86;105945;1251;71540;-77
2023/11/03 05:48:36;;;;;;;53.00;34.60;;;;;;;6.62;100.00;100740.89;105935;1251;62537;-77
2023/11/03 05:51:04;;;;;;;48.00;35.80;;;;;;;6.94;100.00;100741.46;105884;1251;71029;-75
2023/11/03 05:53:31;;;;;;;51.60;35.10;;;;;;;7.26;100.00;100740.58;105867;1256;60636;-76
2023/11/03 05:55:58;;;;;;;46.90;33.60;;;;;;;7.55;100.00;100745.19;105848;1251;60546;-76
2023/11/03 05:58:25;;;;;;;48.50;33.10;;;;;;;7.79;100.00;100744.27;105825;1253;72897;-74
2023/11/03 06:00:54;;;;;;;47.70;33.30;;;;;;;7.99;100.00;100745.09;105872;1256;63955;-73
2023/11/03 06:03:24;;;;;;;53.00;36.00;;;;;;;8.13;100.00;100744.59;105906;1251;72790;-75
2023/11/03 06:05:51;;;;;;;55.30;34.60;;;;;;;8.22;100.00;100747.63;106397;1250;60463;-75
2023/11/03 06:08:18;;;;;;;51.90;34.30;;;;;;;8.27;100.00;100748.44;106069;1250;60533;-75
2023/11/03 06:10:45;;;;;;;43.30;29.30;;;;;;;8.30;100.00;100745.33;106034;1250;73830;-75
2023/11/03 06:13:12;;;;;;;43.20;33.50;;;;;;;8.33;100.00;100746.77;105869;1253;63911;-75
2023/11/03 06:15:39;;;;;;;42.80;32.80;;;;;;;8.36;100.00;100745.95;105997;1250;72735;-75
2023/11/03 06:18:07;;;;;;;38.10;26.10;;;;;;;8.39;100.00;100749.98;105929;1254;61333;-76
2023/11/03 06:20:33;;;;;;;38.10;25.50;;;;;;;8.41;100.00;100746.91;105902;1250;60332;-75
2023/11/03 06:23:01;;;;;;;43.50;24.20;;;;;;;8.44;100.00;100745.05;105835;1251;72463;-76
2023/11/03 06:25:31;;;;;;;26.80;21.80;;;;;;;8.47;100.00;100745.23;105842;1254;63750;-75
2023/11/03 06:27:58;;;;;;;29.60;20.50;;;;;;;8.52;100.00;100744.31;105968;1251;71541;-75
2023/11/03 06:30:26;;;;;;;26.90;20.40;;;;;;;8.56;100.00;100745.67;105854;1254;60429;-76
2023/11/03 06:32:53;;;;;;;29.50;19.90;;;;;;;8.63;100.00;100749.17;105823;1253;60439;-76
2023/11/03 06:35:20;;;;;;;23.80;17.40;;;;;;;8.70;100.00;100751.41;105909;1252;73823;-78
2023/11/03 06:37:48;;;;;;;22.50;17.80;;;;;;;8.79;100.00;100753.43;105953;1251;62754;-77
2023/11/03 06:40:15;;;;;;;23.40;16.90;;;;;;;8.89;100.00;100749.25;105871;1250;71289;-78
2023/11/03 06:42:42;;;;;;;24.70;16.70;;;;;;;8.99;100.00;100743.89;105912;1256;61970;-78
2023/11/03 06:45:09;;;;;;;22.80;17.30;;;;;;;9.06;100.00;100741.59;105895;1251;60520;-78
2023/11/03 06:47:36;;;;;;;19.80;16.10;;;;;;;9.13;100.00;100754.83;106009;1251;72737;-79
2023/11/03 06:50:04;;;;;;;25.10;17.20;;;;;;;9.23;100.00;100765.50;105863;1254;63890;-77
2023/11/03 06:52:32;;;;;;;20.20;16.20;;;;;;;9.33;100.00;100768.29;106017;1251;72656;-77
2023/11/03 06:54:59;;;;;;;19.60;16.10;;;;;;;9.44;100.00;100765.80;105972;1254;62027;-76
2023/11/03 06:57:26;;;;;;;25.00;16.40;;;;;;;9.56;100.00;100759.92;105845;1253;60540;-77
2023/11/03 06:59:53;;;;;;;20.70;15.90;;;;;;;9.68;100.00;100756.61;105841;1254;73915;-78
2023/11/03 07:02:19;;;;;;;21.10;14.90;;;;;;;9.79;100.00;100759.91;105962;1254;61393;-77
2023/11/03 07:04:47;;;;;;;25.80;16.00;;;;;;;9.86;100.00;100761.09;105856;1251;72663;-78
2023/11/03 07:07:18;;;;;;;20.40;15.20;;;;;;;9.96;100.00;100757.04;105876;1254;61666;-76
2023/11/03 07:09:48;;;;;;;18.60;14.50;;;;;;;10.04;100.00;100756.77;105892;1250;60515;-76
2023/11/03 07:12:16;;;;;;;20.50;15.40;;;;;;;10.09;100.00;100751.56;106545;1254;72249;-75
2023/11/03 07:14:45;;;;;;;19.80;14.70;;;;;;;10.12;100.00;100746.50;107168;1250;63931;-74
2023/11/03 07:17:12;;;;;;;19.90;14.60;;;;;;;10.13;100.00;100749.41;107893;1254;71168;-77
2023/11/03 07:19:39;;;;;;;17.80;15.20;;;;;;;10.14;100.00;100746.05;107802;1250;60517;-77
2023/11/03 07:22:06;;;;;;;20.40;15.10;;;;;;;10.17;100.00;100747.66;106125;1254;60438;-74
2023/11/03 07:24:33;;;;;;;19.70;15.10;;;;;;;10.21;100.00;100746.57;105966;1254;74437;-77
2023/11/03 07:27:00;;;;;;;17.70;14.30;;;;;;;10.27;100.00;100746.39;105918;1251;62467;-77
2023/11/03 07:29:27;;;;;;;20.90;15.10;;;;;;;10.31;100.00;100743.55;105997;1250;71100;-77
2023/11/03 07:31:54;;;;;;;20.80;15.60;;;;;;;10.32;100.00;100741.23;105893;1254;60926;-77
2023/11/03 07:34:21;;;;;;;19.70;15.70;;;;;;;10.34;100.00;100737.29;105895;1251;60524;-76
2023/11/03 07:36:47;;;;;;;18.00;14.30;;;;;;;10.33;100.00;100740.14;105883;1254;73731;-78
2023/11/03 07:39:14;;;;;;;17.60;15.00;;;;;;;10.31;100.00;100740.60;105855;1254;62461;-77
2023/11/03 07:41:41;;;;;;;18.70;14.90;;;;;;;10.30;100.00;100739.27;105883;1251;72646;-77
2023/11/03 07:44:10;;;;;;;17.10;14.30;;;;;;;10.29;100.00;100733.90;105834;1254;61901;-76
2023/11/03 07:46:37;;;;;;;17.20;14.60;;;;;;;10.27;100.00;100733.30;105918;1250;60809;-78
2023/11/03 07:49:04;;;;;;;19.90;14.50;;;;;;;10.25;100.00;100733.04;105822;1250;72438;-76
2023/11/03 07:51:32;;;;;;;18.20;13.20;;;;;;;10.25;100.00;100736.36;105798;1254;63810;-79
2023/11/03 07:53:59;;;;;;;20.00;14.40;;;;;;;10.25;100.00;100734.09;105838;1251;71511;-77
2023/11/03 07:56:28;;;;;;;17.90;15.10;;;;;;;10.26;100.00;100728.79;105886;1254;61910;-78
2023/11/03 07:59:03;;;;;;;21.30;15.10;;;;;;;10.29;100.00;100728.12;105927;1254;60329;-77
2023/11/03 08:01:30;;;;;;;19.10;14.40;;;;;;;10.33;100.00;100725.77;105886;1251;72475;-78
2023/11/03 08:03:57;;;;;;;21.10;15.90;;;;;;;10.36;100.00;100724.23;105891;1254;63306;-77
2023/11/03 08:06:25;;;;;;;23.10;16.20;;;;;;;10.42;100.00;100722.30;105928;1250;72710;-76
2023/11/03 08:08:53;;;;;;;21.20;15.90;;;;;;;10.50;100.00;100714.31;105833;1254;61963;-78
2023/11/03 08:11:20;;;;;;;25.70;16.50;;;;;;;10.58;100.00;100705.81;105884;1250;60470;-77
2023/11/03 08:13:49;;;;;;;24.00;17.90;;;;;;;10.69;100.00;100701.52;105783;1252;73920;-78
2023/11/03 08:16:16;;;;;;;24.70;19.00;;;;;;;10.82;100.00;100697.23;105797;1254;62387;-78
2023/11/03 08:18:45;;;;;;;22.90;18.10;;;;;;;10.97;100.00;100696.52;105827;1250;72618;-75
2023/11/03 08:21:11;;;;;;;27.50;18.80;;;;;;;11.12;100.00;100698.21;105852;1250;60582;-78
2023/11/03 08:23:38;;;;;;;23.20;17.40;;;;;;;11.28;100.00;100697.27;105905;1251;60518;-76
2023/11/03 08:26:05;;;;;;;23.90;17.50;;;;;;;11.40;100.00;100699.86;105768;1254;74048;-78
2023/11/03 08:28:35;;;;;;;25.30;16.00;;;;;;;11.51;100.00;100695.82;105786;1254;63633;-75
2023/11/03 08:31:03;;;;;;;26.50;15.80;;;;;;;11.60;100.00;100687.89;105738;1250;72619;-76
2023/11/03 08:33:30;;;;;;;26.90;15.40;;;;;;;11.67;100.00;100676.46;105873;1251;62192;-76
2023/11/03 08:35:57;;;;;;;26.00;16.00;;;;;;;11.71;100.00;100674.61;105864;1251;60461;-76
2023/11/03 08:38:24;;;;;;;26.20;16.90;;;;;;;11.72;100.00;100679.63;105899;1251;73943;-75
2023/11/03 08:40:53;;;;;;;23.10;14.80;;;;;;;11.74;100.00;100677.02;105970;1250;63601;-75
2023/11/03 08:43:20;;;;;;;18.90;13.50;;;;;;;11.78;100.00;100675.21;105921;1250;71896;-75
2023/11/03 08:45:49;;;;;;;21.50;14.10;;;;;;;11.86;100.00;100682.96;105849;1254;61705;-77
2023/11/03 08:48:16;;;;;;;18.40;13.00;;;;;;;11.94;100.00;100680.33;105926;1254;60428;-78
2023/11/03 08:50:43;;;;;;;21.50;13.80;;;;;;;11.99;100.00;100679.81;105990;1253;72672;-76
2023/11/03 08:53:10;;;;;;;18.50;13.60;;;;;;;12.06;100.00;100676.05;105919;1251;62244;-77
2023/11/03 08:55:37;;;;;;;22.60;14.00;;;;;;;12.16;100.00;100673.17;105892;1250;71484;-76
2023/11/03 08:58:04;;;;;;;27.10;15.00;;;;;;;12.25;100.00;100673.22;105823;1254;63440;-75
2023/11/03 09:00:39;;;;;;;21.90;14.70;;;;;;;12.33;100.00;100667.60;105859;1254;60413;-75
2023/11/03 09:03:07;;;;;;;21.10;14.60;;;;;;;12.40;100.00;100663.52;105816;1254;72627;-74
2023/11/03 09:05:34;;;;;;;24.20;14.60;;;;;;;12.44;100.00;100651.63;105792;1250;63792;-77
2023/11/03 09:08:00;;;;;;;25.30;15.50;;;;;;;12.48;100.00;100642.30;105763;1251;72575;-74
2023/11/03 09:10:29;;;;;;;24.90;16.80;;;;;;;12.48;100.00;100639.79;105780;1254;63740;-75
2023/11/03 09:12:56;;;;;;;28.00;18.10;;;;;;;12.51;100.00;100638.23;105880;1251;60470;-75
2023/11/03 09:15:24;;;;;;;28.80;18.10;;;;;;;12.46;100.00;100634.51;105889;1251;72794;-73
2023/11/03 09:17:51;;;;;;;26.00;16.20;;;;;;;12.39;100.00;100633.56;105878;1250;63368;-72
2023/11/03 09:20:22;;;;;;;21.10;15.40;;;;;;;12.32;100.00;100626.32;105870;1254;73771;-74
2023/11/03 09:22:51;;;;;;;25.80;14.50;;;;;;;12.23;100.00;100611.86;105809;1250;61181;-74
2023/11/03 09:25:19;;;;;;;27.90;15.70;;;;;;;12.15;100.00;100604.86;105880;1254;60332;-74
2023/11/03 09:27:47;;;;;;;23.90;14.80;;;;;;;12.08;100.00;100606.36;105887;1251;74959;-73
2023/11/03 09:30:15;;;;;;;26.50;15.30;;;;;;;12.01;100.00;100601.05;105847;1252;61868;-73
2023/11/03 09:32:43;;;;;;;23.10;14.40;;;;;;;11.96;100.00;100592.27;105897;1251;72702;-74
2023/11/03 09:35:10;;;;;;;30.60;15.60;;;;;;;11.93;100.00;100584.79;105933;1254;62763;-74
2023/11/03 09:37:39;;;;;;;21.00;14.90;;;;;;;11.90;100.00;100585.67;105934;1251;60441;-73
2023/11/03 09:40:10;;;;;;;23.90;14.60;;;;;;;11.89;100.00;100585.70;105901;1254;73920;-77
2023/11/03 09:42:39;;;;;;;25.90;14.10;;;;;;;11.91;100.00;100581.23;106009;1254;64929;-75
2023/11/03 09:45:15;;;;;;;24.00;14.10;;;;;;;11.89;100.00;100583.45;105889;1250;72132;-75
2023/11/03 09:47:42;;;;;;;25.50;13.70;;;;;;;11.87;100.00;100575.50;105902;1250;60494;-75
2023/11/03 09:50:10;;;;;;;24.40;13.10;;;;;;;11.86;100.00;100569.96;105699;1250;60518;-74
2023/11/03 09:52:44;;;;;;;21.30;13.40;;;;;;;11.83;100.00;100563.65;105816;1250;73837;-75
2023/11/03 09:55:14;;;;;;;20.50;12.50;;;;;;;11.78;100.00;100567.30;105934;1251;61951;-75
2023/11/03 09:57:42;;;;;;;18.90;13.10;;;;;;;11.74;100.00;100568.32;105839;1250;72629;-76
2023/11/03 10:00:16;;;;;;;22.90;13.70;;;;;;;11.69;100.00;100569.15;105804;1250;62178;-75
2023/11/03 10:02:43;;;;;;;19.50;14.10;;;;;;;11.64;100.00;100573.85;106036;1250;60454;-77
2023/11/03 10:05:17;;;;;;;17.80;13.50;;;;;;;11.59;100.00;100576.41;105877;1256;72647;-75
2023/11/03 10:08:02;;;;;;;17.60;12.00;;;;;;;11.58;100.00;100582.30;106098;1250;63859;-77
2023/11/03 10:10:33;;;;;;;17.10;11.80;;;;;;;11.56;100.00;100582.06;105834;1254;72639;-76
2023/11/03 10:13:05;;;;;;;20.20;12.10;;;;;;;11.53;100.00;100579.27;106027;1254;61786;-75
2023/11/03 10:15:32;;;;;;;22.40;15.60;;;;;;;11.50;100.00;100574.20;105979;1250;60518;-76
2023/11/03 10:17:59;;;;;;;19.50;12.20;;;;;;;11.47;100.00;100574.58;106062;1250;74292;-73
2023/11/03 10:20:26;;;;;;;22.50;12.30;;;;;;;11.45;100.00;100573.85;105931;1254;63293;-75
2023/11/03 10:22:54;;;;;;;19.90;13.40;;;;;;;11.41;100.00;100568.13;105932;1254;70707;-75
2023/11/03 10:25:27;;;;;;;20.40;13.30;;;;;;;11.40;100.00;100567.31;105934;1254;61852;-77
2023/11/03 10:27:54;;;;;;;21.80;13.70;;;;;;;11.39;100.00;100561.23;105821;1255;60960;-75
2023/11/03 10:30:29;;;;;;;22.70;15.40;;;;;;;11.38;100.00;100561.48;105901;1250;72753;-76
2023/11/03 10:32:56;;;;;;;22.80;15.20;;;;;;;11.39;100.00;100561.95;105783;1254;62825;-76
2023/11/03 10:35:23;;;;;;;22.70;16.00;;;;;;;11.39;100.00;100559.17;105859;1250;71100;-77
2023/11/03 10:37:53;;;;;;;28.70;17.40;;;;;;;11.37;100.00;100554.41;105859;1253;60955;-75
2023/11/03 10:40:20;;;;;;;25.40;16.10;;;;;;;11.36;100.00;100550.42;105846;1250;60404;-78
2023/11/03 10:42:53;;;;;;;24.80;17.30;;;;;;;11.37;100.00;100548.23;105842;1254;73812;-75
2023/11/03 10:45:23;;;;;;;25.00;16.20;;;;;;;11.39;100.00;100541.85;105857;1255;63426;-76
2023/11/03 10:48:10;;;;;;;30.30;15.80;;;;;;;11.40;100.00;100542.13;105853;1250;72429;-76
2023/11/03 10:51:00;;;;;;;30.70;15.70;;;;;;;11.39;100.00;100533.95;105824;1254;61987;-75
2023/11/03 10:53:32;;;;;;;23.40;15.30;;;;;;;11.38;100.00;100526.15;105915;1250;60550;-76
2023/11/03 10:56:02;;;;;;;20.00;12.20;;;;;;;11.38;100.00;100523.87;105929;1251;73924;-77
2023/11/03 10:58:49;;;;;;;18.70;12.50;;;;;;;11.39;100.00;100521.69;106011;1254;63831;-76
2023/11/03 11:01:23;;;;;;;19.90;11.20;;;;;;;11.38;100.00;100513.69;105912;1251;73876;-77
2023/11/03 11:03:58;;;;;;;19.40;12.10;;;;;;;11.39;100.00;100510.14;105967;1250;61062;-74
2023/11/03 11:06:34;;;;;;;13.50;10.50;;;;;;;11.40;100.00;100508.88;105891;1254;60434;-79
2023/11/03 11:09:09;;;;;;;15.40;11.20;;;;;;;11.39;100.00;100503.14;105869;1250;73114;-78
2023/11/03 11:11:39;;;;;;;13.60;10.60;;;;;;;11.39;100.00;100505.63;106067;1254;64377;-75
2023/11/03 11:14:24;;;;;;;19.10;11.40;;;;;;;11.38;100.00;100505.48;106035;1251;71222;-76
2023/11/03 11:16:54;;;;;;;20.80;12.20;;;;;;;11.38;100.00;100503.71;105934;1250;61121;-79
2023/11/03 11:19:38;;;;;;;21.20;13.60;;;;;;;11.38;100.00;100503.55;105957;1254;60434;-75